Cringleford, United Kingdom
Current Conditions -  °F | °C
As of 11:20 AM on Friday 24 Oct 2014 (Local Time) from EGSH Reporting Station
Broken Clouds Broken Clouds  
Wind Chill: 16°   Ceiling: 2300
Heat Index: 16°   Visibility: 6mi
Dew Point: 13°   Wind: 10mph
Humidity: 82%   Direction: 210°SSW
Pressure: 29.94"   Gusts: NA
Location:  52.6°N, 1.24°E
Report Text: EGSH 241020Z 21009KT 180V240 9999 FEW013 BKN023 16/13 Q1014 NOSIG
Loading
Personal Weather Stations






























Interactive Weather Map
Tropical Storm Tracking
New forecast layout! Learn more

10-Day Weather Forecast

Advertisements
Track Severe Weather on mobile